CDT,Max TemperatureF,Mean TemperatureF,Min TemperatureF,Max Dew PointF,MeanDew PointF,Min DewpointF,Max Humidity, Mean Humidity, Min Humidity, Max Sea Level PressureIn, Mean Sea Level PressureIn, Min Sea Level PressureIn, Max VisibilityMiles, Mean VisibilityMiles, Min VisibilityMiles, Max Wind SpeedMPH, Mean Wind SpeedMPH, Max Gust SpeedMPH,PrecipitationIn, CloudCover, Events, WindDirDegrees
2012-9-1,80,66,51,61,53,48,100,68,39,30.14,30.09,30.03,10,9,2,14,3,17,0.00,0,,94
2012-9-2,86,68,50,68,60,48,100,78,51,30.03,29.95,29.85,10,10,7,13,2,16,0.00,0,,144
2012-9-3,82,72,62,70,66,63,100,79,54,29.92,29.89,29.86,10,9,5,5,1,,0.02,1,Rain-Thunderstorm,200
2012-9-4,86,72,59,68,62,52,100,75,35,29.90,29.83,29.77,10,8,0,12,2,16,0.00,0,Fog,245
2012-9-5,78,66,53,57,54,46,100,66,39,29.91,29.84,29.73,10,10,10,13,6,23,0.04,1,Rain-Thunderstorm,288
2012-9-6,77,62,48,63,51,46,94,69,36,29.99,29.93,29.88,10,10,5,8,2,,0.00,2,Rain-Thunderstorm,233
2012-9-7,68,60,53,55,50,43,94,70,46,30.04,29.96,29.88,10,10,10,20,8,28,0.01,5,Rain,349
2012-9-8,75,60,44,48,45,43,100,65,36,30.04,29.95,29.80,10,10,4,26,9,33,0.00,1,,289
2012-9-9,71,58,46,52,48,45,100,73,40,30.20,30.13,30.04,10,10,7,9,5,,0.00,0,,314
2012-9-10,80,63,46,50,47,45,100,59,28,30.11,29.98,29.84,10,10,7,21,6,29,0.00,0,,180
2012-9-11,93,76,60,52,51,48,72,45,23,29.85,29.79,29.73,10,10,7,22,12,31,0.00,0,,190
2012-9-12,73,63,53,54,52,48,100,80,47,30.26,30.13,29.85,10,10,7,13,4,17,0.09,4,Rain,285
2012-9-13,71,58,46,52,45,32,100,70,23,30.35,30.29,30.25,10,10,4,8,2,,0.00,0,,276
2012-9-14,73,56,39,46,41,36,100,65,25,30.33,30.29,30.25,10,10,4,9,1,,0.00,0,,60
2012-9-15,82,62,41,48,43,39,93,55,24,30.25,30.11,29.98,10,10,7,12,3,20,0.00,0,,202
2012-9-16,78,68,59,55,50,39,77,56,40,29.98,29.92,29.87,10,10,10,10,5,18,0.00,0,,248
2012-9-17,62,54,46,50,42,34,94,66,39,29.99,29.97,29.92,10,10,7,17,9,22,0.24,5,Rain-Thunderstorm,335
2012-9-18,59,48,37,41,36,28,100,65,33,30.03,29.99,29.89,10,10,5,15,4,18,0.00,1,,288
2012-9-19,71,60,48,46,40,32,82,52,31,29.88,29.75,29.65,10,10,10,26,9,34,0.00,2,Rain,236
2012-9-20,62,52,42,43,37,32,87,57,34,29.92,29.89,29.84,10,10,7,20,8,28,0.00,1,,274
2012-9-21,59,50,42,46,40,36,93,65,45,29.88,29.84,29.79,10,10,7,23,6,34,0.00,4,Rain,296
2012-9-22,57,47,37,37,32,27,81,61,36,30.24,30.11,29.89,10,10,10,21,13,28,0.00,4,,316
2012-9-23,57,42,28,36,30,28,100,63,33,30.31,30.25,30.17,10,10,7,14,5,23,0.00,0,,276
2012-9-24,75,56,37,39,33,27,70,44,24,30.16,29.91,29.75,10,10,5,18,5,26,0.00,0,,237
2012-9-25,64,50,37,43,38,34,93,60,32,29.95,29.87,29.77,10,10,4,10,4,16,0.00,0,,342
2012-9-26,62,46,30,39,35,28,100,68,34,30.21,30.09,29.94,10,9,2,10,2,21,0.00,0,,19
2012-9-27,66,48,30,39,36,28,100,70,32,30.28,30.22,30.17,10,9,2,7,1,,0.00,0,,102
2012-9-28,73,54,35,45,39,36,100,66,25,30.22,30.16,30.11,10,8,2,6,0,,0.00,0,,234
2012-9-29,78,63,46,46,41,37,93,49,28,30.12,30.07,30.01,10,9,2,8,3,,0.00,0,,301
2012-9-30,75,57,39,45,41,36,100,63,25,30.04,29.97,29.90,10,9,2,7,1,,0.00,0,,113